Time;durP1;ratioP1;P1;durP2;ratioP2;P2;SDS_P1;SDS_P2;PMS_P1;PMS_P2;Temp;Humidity;BMP_temperature;BMP_pressure;BME280_temperature;BME280_humidity;BME280_pressure;Samples;Min_cycle;Max_cycle;Signal;HPM_P1;HPM_P2
2022/03/13 00:00:40;;;;;;;107.70;46.33;;;1.80;51.70;;;;;;5013991;28;20461;-61
2022/03/13 00:03:09;;;;;;;96.03;44.33;;;1.80;51.70;;;;;;5013831;28;20037;-61
2022/03/13 00:05:40;;;;;;;109.70;49.58;;;1.70;52.40;;;;;;5045762;28;20025;-61
2022/03/13 00:08:28;;;;;;;111.03;50.38;;;1.70;52.40;;;;;;5013742;28;20072;-61
2022/03/13 00:11:07;;;;;;;186.98;83.25;;;1.70;52.10;;;;;;5013773;28;20108;-61
2022/03/13 00:13:39;;;;;;;184.98;84.05;;;1.60;52.40;;;;;;5013543;28;20045;-61
2022/03/13 00:16:09;;;;;;;151.82;66.05;;;1.30;53.10;;;;;;5013764;28;20022;-61
2022/03/13 00:18:36;;;;;;;136.88;62.15;;;1.10;54.00;;;;;;5013474;28;20014;-61
2022/03/13 00:21:04;;;;;;;154.13;69.55;;;1.10;53.90;;;;;;5013733;28;20076;-61
2022/03/13 00:23:34;;;;;;;149.95;66.90;;;1.20;53.50;;;;;;5013960;28;20438;-61
2022/03/13 00:26:04;;;;;;;126.78;58.15;;;1.10;54.00;;;;;;5013598;28;20022;-61
2022/03/13 00:28:30;;;;;;;136.38;58.40;;;1.00;54.60;;;;;;5013621;28;20053;-61
2022/03/13 00:30:56;;;;;;;122.47;53.15;;;1.10;54.10;;;;;;5013438;28;20057;-61
2022/03/13 00:33:23;;;;;;;119.63;54.75;;;1.10;53.80;;;;;;5013708;28;20433;-62
2022/03/13 00:35:49;;;;;;;123.70;54.05;;;1.10;53.80;;;;;;5013515;28;20500;-61
2022/03/13 00:38:15;;;;;;;116.10;54.38;;;1.20;53.40;;;;;;5013017;28;20499;-61
2022/03/13 00:40:41;;;;;;;106.53;48.38;;;1.10;53.30;;;;;;5013627;28;20025;-61
2022/03/13 00:43:10;;;;;;;100.25;46.83;;;1.10;53.80;;;;;;5013776;28;20084;-61
2022/03/13 00:45:35;;;;;;;106.70;49.40;;;1.10;53.80;;;;;;5013498;28;20037;-61
2022/03/13 00:48:01;;;;;;;90.10;41.92;;;1.10;54.00;;;;;;5013330;28;20026;-61
2022/03/13 00:50:27;;;;;;;85.88;40.78;;;1.10;53.80;;;;;;5013502;28;20105;-61
2022/03/13 00:52:53;;;;;;;136.50;61.03;;;1.10;53.60;;;;;;5013348;28;20072;-61
2022/03/13 00:55:19;;;;;;;97.15;44.60;;;1.10;53.40;;;;;;5013123;28;20042;-61
2022/03/13 00:57:45;;;;;;;92.28;44.88;;;1.00;54.30;;;;;;5013334;28;20099;-61
2022/03/13 01:00:13;;;;;;;88.70;44.67;;;1.00;54.10;;;;;;5013061;28;20548;-61
2022/03/13 01:02:39;;;;;;;119.15;54.58;;;0.90;53.90;;;;;;5013210;28;20161;-61
2022/03/13 01:05:08;;;;;;;121.68;55.00;;;0.90;54.50;;;;;;5013769;28;20033;-61
2022/03/13 01:07:34;;;;;;;93.10;46.28;;;0.80;54.40;;;;;;5013499;28;20105;-61
2022/03/13 01:09:59;;;;;;;105.65;49.40;;;0.70;54.90;;;;;;5013108;28;20152;-61
2022/03/13 01:12:25;;;;;;;106.65;48.45;;;0.70;54.60;;;;;;5013116;28;20133;-61
2022/03/13 01:14:51;;;;;;;120.38;54.80;;;0.80;54.80;;;;;;5012877;28;20117;-61
2022/03/13 01:17:20;;;;;;;104.30;47.22;;;0.70;54.50;;;;;;5013123;28;20022;-61
2022/03/13 01:19:47;;;;;;;98.05;45.55;;;0.60;55.20;;;;;;5013242;28;20083;-61
2022/03/13 01:22:12;;;;;;;93.50;43.75;;;0.50;55.10;;;;;;5013210;28;20026;-61
2022/03/13 01:24:44;;;;;;;83.18;39.58;;;0.50;54.70;;;;;;5013017;28;20018;-61
2022/03/13 01:27:15;;;;;;;75.57;36.97;;;0.60;54.90;;;;;;5013354;28;20034;-61
2022/03/13 01:29:42;;;;;;;75.38;36.78;;;0.70;54.80;;;;;;5012883;28;20024;-61
2022/03/13 01:32:10;;;;;;;77.57;37.88;;;0.60;54.80;;;;;;5013188;28;20096;-61
2022/03/13 01:34:38;;;;;;;67.88;33.00;;;0.60;54.70;;;;;;5011639;28;20396;-61
2022/03/13 01:37:13;;;;;;;72.70;35.63;;;0.60;54.60;;;;;;5012938;28;20104;-61
2022/03/13 01:39:40;;;;;;;69.82;33.03;;;0.70;54.30;;;;;;5013141;28;20354;-61
2022/03/13 01:42:06;;;;;;;70.20;35.22;;;0.60;54.20;;;;;;5013012;28;20026;-61
2022/03/13 01:44:32;;;;;;;70.43;33.50;;;0.60;53.90;;;;;;5012731;28;20033;-61
2022/03/13 01:46:57;;;;;;;74.55;34.55;;;0.60;54.60;;;;;;5012771;28;20018;-61
2022/03/13 01:49:24;;;;;;;78.75;37.03;;;0.60;54.60;;;;;;5014063;28;20084;-61
2022/03/13 01:51:50;;;;;;;89.32;40.65;;;0.60;54.10;;;;;;5016405;28;20025;-61
2022/03/13 01:54:17;;;;;;;144.85;61.65;;;0.60;54.10;;;;;;5016110;28;20022;-61
2022/03/13 01:56:43;;;;;;;137.90;57.08;;;0.50;54.30;;;;;;5016410;28;20018;-61
2022/03/13 01:59:14;;;;;;;98.22;43.20;;;0.40;55.00;;;;;;5016001;28;20057;-61
2022/03/13 02:01:40;;;;;;;103.97;48.10;;;0.30;55.50;;;;;;5016083;28;20072;-61
2022/03/13 02:04:06;;;;;;;120.37;53.87;;;0.30;55.00;;;;;;5016251;28;20471;-61
2022/03/13 02:06:33;;;;;;;148.90;65.20;;;0.30;54.80;;;;;;5016068;28;20026;-61
2022/03/13 02:08:59;;;;;;;115.80;50.20;;;0.10;55.20;;;;;;5015956;28;20026;-61
2022/03/13 02:11:36;;;;;;;106.43;49.72;;;0.00;55.80;;;;;;5015946;28;20021;-61
2022/03/13 02:14:03;;;;;;;100.67;47.30;;;0.00;55.50;;;;;;5015800;28;20041;-61
2022/03/13 02:16:29;;;;;;;90.55;41.50;;;0.00;55.60;;;;;;5015837;28;20060;-61
2022/03/13 02:18:56;;;;;;;80.30;38.00;;;-0.10;55.90;;;;;;5015964;28;20076;-61
2022/03/13 02:21:29;;;;;;;95.37;43.77;;;-0.10;55.70;;;;;;5015860;28;20021;-61
2022/03/13 02:23:56;;;;;;;105.75;44.47;;;0.00;55.20;;;;;;5016008;28;20030;-61
2022/03/13 02:26:22;;;;;;;95.13;44.63;;;-0.10;55.50;;;;;;5015825;28;20127;-61
2022/03/13 02:28:52;;;;;;;76.77;34.80;;;-0.30;56.30;;;;;;5015488;28;20101;-61
2022/03/13 02:31:27;;;;;;;72.07;36.60;;;-0.30;56.70;;;;;;5015723;28;20026;-61
2022/03/13 02:33:54;;;;;;;74.70;33.10;;;-0.30;56.20;;;;;;5015559;28;20022;-61
2022/03/13 02:36:44;;;;;;;59.20;30.57;;;-0.30;56.10;;;;;;5015475;28;20021;-61
2022/03/13 02:39:11;;;;;;;78.30;37.73;;;-0.20;56.70;;;;;;5015354;28;20555;-61
2022/03/13 02:41:40;;;;;;;63.50;30.40;;;-0.20;55.90;;;;;;5015167;28;20495;-63
2022/03/13 02:44:11;;;;;;;65.45;31.85;;;-0.40;56.50;;;;;;5015410;28;20481;-61
2022/03/13 02:46:45;;;;;;;57.90;27.57;;;-0.40;56.30;;;;;;5015360;28;20033;-61
2022/03/13 02:49:15;;;;;;;51.70;26.83;;;-0.30;56.40;;;;;;5015223;28;20037;-61
2022/03/13 02:51:45;;;;;;;52.22;26.95;;;-0.30;56.30;;;;;;5015220;28;20030;-62
2022/03/13 02:54:11;;;;;;;53.30;27.40;;;-0.30;56.20;;;;;;5014992;28;20412;-60
2022/03/13 02:56:37;;;;;;;49.77;24.97;;;-0.20;55.90;;;;;;5015054;28;20076;-61
2022/03/13 02:59:03;;;;;;;59.20;27.25;;;-0.20;56.00;;;;;;5015038;28;20022;-61
2022/03/13 03:01:29;;;;;;;79.13;37.93;;;-0.20;56.00;;;;;;5014626;28;20030;-61
2022/03/13 03:04:00;;;;;;;57.20;27.77;;;-0.20;56.20;;;;;;5014995;28;20030;-61
2022/03/13 03:06:29;;;;;;;58.07;30.20;;;-0.30;57.00;;;;;;5015223;28;20026;-60
2022/03/13 03:08:56;;;;;;;74.27;34.10;;;-0.40;56.60;;;;;;5014869;28;20021;-61
2022/03/13 03:11:22;;;;;;;84.83;37.37;;;-0.30;56.30;;;;;;5014377;28;20021;-60
2022/03/13 03:13:47;;;;;;;65.27;32.00;;;-0.40;56.40;;;;;;5015018;28;20422;-61
2022/03/13 03:16:13;;;;;;;61.03;29.50;;;-0.50;57.20;;;;;;5014735;28;20065;-61
2022/03/13 03:18:39;;;;;;;92.50;42.63;;;-0.50;57.80;;;;;;5014671;28;20079;-61
2022/03/13 03:21:05;;;;;;;64.67;31.13;;;-0.50;56.80;;;;;;5015011;28;20025;-61
2022/03/13 03:23:31;;;;;;;68.20;31.63;;;-0.60;57.40;;;;;;5014584;28;20025;-61
2022/03/13 03:25:57;;;;;;;56.90;29.30;;;-0.60;58.00;;;;;;5046156;28;20389;-60
2022/03/13 03:28:23;;;;;;;73.40;34.57;;;-0.60;57.30;;;;;;5014635;28;20025;-60
2022/03/13 03:30:49;;;;;;;54.63;25.27;;;-0.50;57.20;;;;;;5014542;28;20022;-61
2022/03/13 03:33:15;;;;;;;53.50;25.10;;;-0.60;57.50;;;;;;5014349;28;20022;-61
2022/03/13 03:35:42;;;;;;;49.58;23.65;;;-0.60;57.40;;;;;;5014465;28;20029;-61
2022/03/13 03:38:07;;;;;;;60.77;29.03;;;-0.60;57.50;;;;;;5014538;28;20036;-61
2022/03/13 03:40:35;;;;;;;52.23;25.47;;;-0.70;57.60;;;;;;5014058;28;20022;-61
2022/03/13 03:43:03;;;;;;;53.07;25.00;;;-0.70;57.70;;;;;;5014527;28;20019;-61
2022/03/13 03:45:29;;;;;;;48.83;25.90;;;-0.80;57.60;;;;;;5014533;28;20392;-61
2022/03/13 03:47:55;;;;;;;41.90;20.80;;;-0.70;57.40;;;;;;5014222;28;20029;-60
2022/03/13 03:50:21;;;;;;;56.83;28.70;;;-0.70;57.90;;;;;;5014273;28;20022;-60
2022/03/13 03:52:47;;;;;;;50.97;24.63;;;-0.70;57.20;;;;;;5014124;28;20475;-61
2022/03/13 03:55:14;;;;;;;50.97;25.07;;;-0.70;57.30;;;;;;5013798;28;20026;-61
2022/03/13 03:57:40;;;;;;;58.20;28.20;;;-0.70;57.30;;;;;;5045880;28;20388;-61
2022/03/13 04:00:08;;;;;;;65.60;31.93;;;-0.70;57.10;;;;;;5014036;28;20116;-61
2022/03/13 04:02:34;;;;;;;69.60;32.40;;;-0.70;57.20;;;;;;5013900;28;20120;-60
2022/03/13 04:05:01;;;;;;;86.57;42.40;;;-0.80;57.60;;;;;;5013884;28;20053;-60
2022/03/13 04:07:27;;;;;;;88.10;40.87;;;-0.90;57.60;;;;;;5014013;28;20022;-60
2022/03/13 04:09:53;;;;;;;74.53;34.67;;;-1.00;57.90;;;;;;5014369;28;20018;-61
2022/03/13 04:12:18;;;;;;;69.13;33.53;;;-1.00;58.20;;;;;;5012976;28;20115;-60
2022/03/13 04:14:45;;;;;;;68.50;33.07;;;-1.00;58.60;;;;;;5013689;28;20026;-61
2022/03/13 04:17:10;;;;;;;70.53;31.40;;;-1.00;58.80;;;;;;5013823;28;20072;-61
2022/03/13 04:19:36;;;;;;;60.33;29.73;;;-1.10;58.40;;;;;;5013702;28;20030;-61
2022/03/13 04:22:02;;;;;;;58.63;29.23;;;-1.00;58.20;;;;;;5013766;28;20022;-61
2022/03/13 04:24:31;;;;;;;55.00;26.50;;;-0.90;57.70;;;;;;5013589;28;20096;-60
2022/03/13 04:26:58;;;;;;;54.03;25.37;;;-1.00;57.60;;;;;;5013581;28;20026;-60
2022/03/13 04:29:24;;;;;;;57.13;26.27;;;-1.00;57.70;;;;;;5013931;28;20380;-60
2022/03/13 04:31:54;;;;;;;47.60;25.40;;;-1.00;57.60;;;;;;5013611;28;20022;-60
2022/03/13 04:34:21;;;;;;;46.93;23.73;;;-1.00;57.00;;;;;;5013410;28;20034;-61
2022/03/13 04:36:47;;;;;;;49.57;24.23;;;-1.00;57.40;;;;;;5013588;28;20116;-60
2022/03/13 04:39:14;;;;;;;41.70;23.17;;;-1.00;57.40;;;;;;5013299;28;20452;-61
2022/03/13 04:41:40;;;;;;;43.67;23.07;;;-1.10;57.50;;;;;;5013399;28;20026;-60
2022/03/13 04:44:08;;;;;;;37.87;18.63;;;-1.30;58.40;;;;;;5013761;28;20069;-60
2022/03/13 04:46:35;;;;;;;36.60;17.87;;;-1.40;59.00;;;;;;5013534;28;20029;-61
2022/03/13 04:49:01;;;;;;;35.77;17.60;;;-1.40;58.70;;;;;;5013605;28;20069;-61
2022/03/13 04:51:27;;;;;;;38.40;19.23;;;-1.30;58.30;;;;;;5013340;28;20461;-61
2022/03/13 04:53:53;;;;;;;32.30;17.30;;;-1.20;58.40;;;;;;5013033;28;20030;-61
2022/03/13 04:56:19;;;;;;;39.10;19.23;;;-1.20;58.40;;;;;;5013560;28;20025;-61
2022/03/13 04:58:44;;;;;;;39.33;20.17;;;-1.10;57.90;;;;;;5013330;28;20025;-61
2022/03/13 05:01:11;;;;;;;39.53;19.87;;;-1.10;58.80;;;;;;5013423;28;20022;-60
2022/03/13 05:03:36;;;;;;;44.63;22.70;;;-1.20;58.30;;;;;;5013236;28;20064;-61
2022/03/13 05:06:05;;;;;;;40.67;21.77;;;-1.20;58.10;;;;;;5013504;28;20061;-61
2022/03/13 05:08:31;;;;;;;66.73;32.63;;;-1.10;58.10;;;;;;5013369;28;20041;-61
2022/03/13 05:10:57;;;;;;;40.87;20.87;;;-1.20;58.30;;;;;;5013200;28;20092;-60
2022/03/13 05:13:24;;;;;;;42.73;22.30;;;-1.30;59.00;;;;;;5012995;28;20520;-60
2022/03/13 05:15:52;;;;;;;56.47;27.83;;;-1.30;59.20;;;;;;5011910;28;20373;-60
2022/03/13 05:18:18;;;;;;;61.77;29.07;;;-1.20;59.10;;;;;;5013166;28;20484;-59
2022/03/13 05:20:45;;;;;;;43.13;22.53;;;-1.30;59.60;;;;;;5013117;28;20030;-60
2022/03/13 05:23:11;;;;;;;48.10;23.80;;;-1.30;59.70;;;;;;5014079;28;20022;-60
2022/03/13 05:25:39;;;;;;;43.67;22.83;;;-1.20;59.40;;;;;;5016911;28;20033;-60
2022/03/13 05:28:09;;;;;;;41.00;20.33;;;-1.10;58.90;;;;;;5016788;28;20096;-60
2022/03/13 05:30:36;;;;;;;47.43;23.87;;;-1.10;58.50;;;;;;5017039;28;20041;-61
2022/03/13 05:33:02;;;;;;;59.80;26.57;;;-1.10;58.40;;;;;;5016676;28;20014;-61
2022/03/13 05:35:28;;;;;;;50.10;23.77;;;-1.10;59.20;;;;;;5016555;28;20108;-61
2022/03/13 05:37:54;;;;;;;46.70;22.53;;;-1.00;59.40;;;;;;5016427;28;20105;-61
2022/03/13 05:40:20;;;;;;;54.13;24.23;;;-1.00;59.00;;;;;;5016827;28;20022;-61
2022/03/13 05:42:49;;;;;;;59.17;27.53;;;-1.00;58.10;;;;;;5016736;28;20029;-61
2022/03/13 05:45:16;;;;;;;47.43;23.20;;;-0.90;58.80;;;;;;5016523;28;20123;-61
2022/03/13 05:47:51;;;;;;;69.53;33.17;;;-1.00;58.60;;;;;;5016374;28;20029;-61
2022/03/13 05:50:18;;;;;;;78.43;37.93;;;-1.00;58.70;;;;;;5016573;28;20026;-61
2022/03/13 05:52:45;;;;;;;51.60;26.30;;;-1.10;58.80;;;;;;5016215;28;20026;-61
2022/03/13 05:55:12;;;;;;;53.77;26.87;;;-1.20;59.40;;;;;;5016208;28;20040;-60
2022/03/13 05:57:38;;;;;;;55.23;25.10;;;-1.10;59.70;;;;;;5015008;28;20377;-60
2022/03/13 06:00:07;;;;;;;53.50;25.67;;;-1.00;59.70;;;;;;5016236;28;20037;-60
2022/03/13 06:02:33;;;;;;;69.07;30.57;;;-0.90;59.50;;;;;;5016367;28;20060;-59
2022/03/13 06:04:58;;;;;;;48.27;23.63;;;-0.80;58.80;;;;;;5015867;28;20034;-60
2022/03/13 06:07:24;;;;;;;47.00;22.27;;;-0.80;58.70;;;;;;5016154;28;20097;-59
2022/03/13 06:09:52;;;;;;;44.23;20.63;;;-0.80;58.40;;;;;;5016073;28;20032;-60
2022/03/13 06:12:18;;;;;;;60.50;32.27;;;-0.70;59.10;;;;;;5015705;28;20057;-60
2022/03/13 06:14:43;;;;;;;110.40;47.77;;;-0.60;58.60;;;;;;5016064;28;20396;-60
2022/03/13 06:17:09;;;;;;;116.67;49.33;;;-0.70;58.20;;;;;;5015970;28;20026;-60
2022/03/13 06:19:39;;;;;;;138.43;63.90;;;-0.90;59.20;;;;;;5015567;28;20084;-59
2022/03/13 06:22:05;;;;;;;177.73;77.40;;;-0.90;59.90;;;;;;5015939;28;20026;-60
2022/03/13 06:24:32;;;;;;;168.60;75.60;;;-1.00;61.80;;;;;;5016044;28;20029;-59
2022/03/13 06:26:58;;;;;;;294.47;125.17;;;-1.00;62.00;;;;;;5015607;28;20024;-60
2022/03/13 06:29:25;;;;;;;455.37;228.37;;;-0.80;62.70;;;;;;5015700;28;20044;-60
2022/03/13 06:31:51;;;;;;;505.40;251.13;;;-0.90;63.20;;;;;;5015889;28;20448;-60
2022/03/13 06:34:17;;;;;;;475.80;238.80;;;-0.90;63.70;;;;;;5014760;28;20128;-60
2022/03/13 06:36:43;;;;;;;448.10;220.60;;;0.40;62.50;;;;;;5015548;28;20068;-60
2022/03/13 06:39:08;;;;;;;459.30;231.83;;;3.30;54.60;;;;;;5015619;28;20380;-60
2022/03/13 06:41:34;;;;;;;567.90;300.65;;;5.80;48.50;;;;;;5015367;28;20076;-60
2022/03/13 06:44:00;;;;;;;551.30;301.02;;;7.30;44.30;;;;;;5015369;28;20032;-60
2022/03/13 06:46:26;;;;;;;551.28;316.65;;;8.00;42.40;;;;;;5015409;28;20028;-60
2022/03/13 06:48:52;;;;;;;474.60;268.48;;;8.60;41.00;;;;;;5015089;28;20022;-60
2022/03/13 06:51:17;;;;;;;445.70;243.75;;;9.30;40.10;;;;;;5015380;28;20030;-60
2022/03/13 06:53:43;;;;;;;427.63;232.10;;;10.20;38.60;;;;;;5015082;28;20515;-60
2022/03/13 06:56:09;;;;;;;423.17;226.82;;;10.50;37.30;;;;;;5015232;28;20503;-60
2022/03/13 06:58:35;;;;;;;365.63;187.40;;;10.90;37.50;;;;;;5015007;28;20112;-60
2022/03/13 07:01:01;;;;;;;287.38;153.00;;;11.50;36.10;;;;;;5015033;28;20075;-60
2022/03/13 07:03:27;;;;;;;221.60;115.72;;;12.10;35.40;;;;;;5015080;28;20033;-60
2022/03/13 07:05:53;;;;;;;274.25;139.45;;;13.10;33.40;;;;;;5014954;28;20034;-61
2022/03/13 07:08:19;;;;;;;225.10;123.53;;;13.60;33.10;;;;;;5014923;28;20029;-60
2022/03/13 07:10:45;;;;;;;369.35;199.43;;;14.20;32.60;;;;;;5046692;28;20041;-60
2022/03/13 07:13:17;;;;;;;363.75;197.30;;;14.60;32.20;;;;;;5014574;28;20046;-60
2022/03/13 07:15:43;;;;;;;293.60;160.82;;;14.70;31.70;;;;;;5014724;28;20038;-60
2022/03/13 07:18:09;;;;;;;234.85;130.57;;;14.80;31.20;;;;;;5014546;28;20392;-60
2022/03/13 07:20:34;;;;;;;193.65;110.40;;;15.10;31.30;;;;;;5014639;28;20026;-60
2022/03/13 07:23:00;;;;;;;172.98;99.65;;;15.60;30.60;;;;;;5014719;28;20463;-60
2022/03/13 07:25:26;;;;;;;135.55;78.13;;;16.30;30.60;;;;;;5014587;28;20032;-60
2022/03/13 07:27:52;;;;;;;127.70;75.03;;;17.10;29.10;;;;;;5014415;28;20041;-61
2022/03/13 07:30:17;;;;;;;133.02;80.93;;;17.50;28.90;;;;;;5014656;28;20025;-60
2022/03/13 07:32:44;;;;;;;137.05;76.45;;;18.30;27.60;;;;;;5014326;28;20466;-61
2022/03/13 07:35:11;;;;;;;130.95;76.90;;;18.60;27.40;;;;;;5014222;28;20026;-60
2022/03/13 07:37:37;;;;;;;117.20;67.97;;;19.10;27.10;;;;;;5014455;28;20053;-60
2022/03/13 07:40:04;;;;;;;115.03;65.25;;;19.20;27.30;;;;;;5014405;28;20026;-61
2022/03/13 07:42:30;;;;;;;114.30;66.40;;;19.10;26.50;;;;;;5014332;28;20021;-61
2022/03/13 07:44:56;;;;;;;122.20;70.35;;;19.30;27.30;;;;;;5014229;28;20030;-61
2022/03/13 07:47:22;;;;;;;157.70;91.10;;;19.90;27.00;;;;;;5014099;28;20156;-61
2022/03/13 07:49:47;;;;;;;134.85;79.07;;;20.40;26.20;;;;;;5014120;28;20018;-61
2022/03/13 07:52:13;;;;;;;144.95;84.85;;;20.50;26.80;;;;;;5014108;28;20025;-61
2022/03/13 07:54:39;;;;;;;127.22;77.15;;;20.80;26.20;;;;;;5013940;28;20116;-61
2022/03/13 07:57:05;;;;;;;112.55;65.68;;;20.40;26.40;;;;;;5014373;28;20021;-60
2022/03/13 07:59:30;;;;;;;100.38;61.20;;;20.70;25.30;;;;;;5014009;28;20017;-61
2022/03/13 08:01:56;;;;;;;95.55;58.63;;;20.90;25.90;;;;;;5013898;28;20030;-61
2022/03/13 08:04:24;;;;;;;98.30;59.75;;;21.60;25.50;;;;;;5013964;28;20541;-61
2022/03/13 08:06:50;;;;;;;79.65;50.97;;;22.00;24.90;;;;;;5013907;28;20033;-61
2022/03/13 08:09:16;;;;;;;51.55;32.25;;;23.10;24.40;;;;;;5013872;28;20018;-61
2022/03/13 08:11:42;;;;;;;46.60;29.88;;;23.50;24.10;;;;;;5013895;28;20029;-61
2022/03/13 08:14:08;;;;;;;34.47;23.85;;;23.90;23.90;;;;;;5013634;28;20034;-61
2022/03/13 08:16:36;;;;;;;28.95;20.30;;;24.00;23.10;;;;;;5013560;28;20515;-61
2022/03/13 08:19:02;;;;;;;28.75;19.65;;;24.10;23.50;;;;;;5014046;28;20026;-61
2022/03/13 08:21:27;;;;;;;30.40;21.38;;;23.90;23.70;;;;;;5013617;28;20435;-61
2022/03/13 08:23:54;;;;;;;58.28;32.10;;;24.10;22.80;;;;;;5013810;28;20026;-61
2022/03/13 08:26:20;;;;;;;76.13;43.42;;;24.30;23.70;;;;;;5013687;28;20045;-61
2022/03/13 08:28:46;;;;;;;48.67;30.25;;;24.40;23.40;;;;;;5013625;28;20468;-60
2022/03/13 08:31:13;;;;;;;38.97;26.33;;;24.30;23.00;;;;;;5013355;28;20037;-61
2022/03/13 08:33:38;;;;;;;34.97;25.35;;;24.20;23.30;;;;;;5013438;28;20559;-61
2022/03/13 08:36:04;;;;;;;34.78;25.40;;;24.30;22.90;;;;;;5013572;28;20102;-61
2022/03/13 08:38:30;;;;;;;49.97;31.08;;;23.80;23.30;;;;;;5013703;28;20021;-61
2022/03/13 08:40:56;;;;;;;44.78;29.27;;;24.10;23.10;;;;;;5013547;28;20093;-61
2022/03/13 08:43:22;;;;;;;45.65;29.00;;;23.90;23.70;;;;;;5013440;28;20026;-61
2022/03/13 08:45:48;;;;;;;43.00;29.50;;;23.80;23.60;;;;;;5013414;28;20026;-61
2022/03/13 08:48:14;;;;;;;46.85;32.80;;;23.40;23.10;;;;;;5013440;28;20384;-61
2022/03/13 08:50:40;;;;;;;45.05;31.15;;;23.20;23.00;;;;;;5013670;28;20014;-61
2022/03/13 08:53:07;;;;;;;43.72;31.20;;;23.20;23.20;;;;;;5013276;28;20387;-61
2022/03/13 08:55:33;;;;;;;46.15;30.85;;;23.20;23.00;;;;;;5013306;28;20034;-61
2022/03/13 08:57:58;;;;;;;49.78;32.80;;;23.20;23.70;;;;;;5014202;28;20033;-61
2022/03/13 09:00:25;;;;;;;47.25;33.08;;;22.70;23.30;;;;;;5017055;28;20018;-61
2022/03/13 09:02:52;;;;;;;45.63;33.20;;;22.50;23.20;;;;;;5017420;28;20029;-61
2022/03/13 09:05:19;;;;;;;45.55;31.77;;;22.30;23.30;;;;;;5017363;28;20069;-61
2022/03/13 09:07:44;;;;;;;41.85;29.63;;;21.70;23.30;;;;;;5017217;28;20022;-61
2022/03/13 09:10:11;;;;;;;42.92;29.98;;;21.10;24.10;;;;;;5017078;28;20524;-61
2022/03/13 09:12:39;;;;;;;47.85;33.33;;;20.80;24.90;;;;;;5017042;28;20060;-61
2022/03/13 09:15:06;;;;;;;46.92;33.13;;;19.80;26.20;;;;;;5017114;28;20041;-61
2022/03/13 09:17:33;;;;;;;44.10;30.48;;;18.80;26.00;;;;;;5016975;28;20046;-61
2022/03/13 09:19:59;;;;;;;38.45;27.67;;;17.90;26.70;;;;;;5017268;28;20025;-61
2022/03/13 09:22:29;;;;;;;36.80;25.27;;;17.40;26.20;;;;;;5016969;28;20377;-60
2022/03/13 09:24:58;;;;;;;26.92;20.02;;;16.90;26.50;;;;;;5016896;28;20037;-61
2022/03/13 09:27:29;;;;;;;28.13;20.23;;;16.70;26.70;;;;;;5017145;28;20121;-60
2022/03/13 09:29:56;;;;;;;26.70;18.70;;;16.30;27.40;;;;;;5016830;28;20439;-60
2022/03/13 09:32:23;;;;;;;23.20;16.60;;;15.80;26.30;;;;;;5017060;28;20030;-62
2022/03/13 09:34:48;;;;;;;23.35;17.08;;;15.70;27.50;;;;;;5016902;28;20041;-60
2022/03/13 09:37:14;;;;;;;21.98;15.30;;;15.60;26.90;;;;;;5016602;28;20018;-60
2022/03/13 09:39:40;;;;;;;19.75;15.02;;;15.60;26.50;;;;;;5016958;28;20061;-60
2022/03/13 09:42:06;;;;;;;18.60;14.50;;;15.60;27.60;;;;;;5016633;28;20030;-60
2022/03/13 09:44:32;;;;;;;19.45;14.30;;;15.80;28.70;;;;;;5016334;28;20097;-60
2022/03/13 09:46:58;;;;;;;21.23;14.50;;;15.90;26.80;;;;;;5016357;28;20022;-61
2022/03/13 09:49:24;;;;;;;17.92;13.50;;;15.60;26.20;;;;;;5016475;28;20033;-61
2022/03/13 09:51:51;;;;;;;19.50;13.75;;;15.50;27.50;;;;;;5016408;28;20103;-60
2022/03/13 09:54:17;;;;;;;19.58;14.63;;;15.70;26.40;;;;;;5016175;28;20030;-60
2022/03/13 09:56:43;;;;;;;16.35;11.70;;;16.00;25.70;;;;;;5016346;28;20045;-60
2022/03/13 09:59:09;;;;;;;13.23;10.35;;;16.70;25.00;;;;;;5016140;28;20469;-60
2022/03/13 10:01:35;;;;;;;12.93;8.70;;;17.20;25.20;;;;;;5016186;28;20068;-60
2022/03/13 10:04:03;;;;;;;17.08;10.52;;;17.60;24.20;;;;;;5016174;28;20030;-61
2022/03/13 10:06:29;;;;;;;12.63;8.55;;;17.30;24.40;;;;;;5016266;28;20028;-61
2022/03/13 10:08:55;;;;;;;12.35;8.15;;;16.90;24.30;;;;;;5015932;28;20034;-61
2022/03/13 10:11:34;;;;;;;10.38;8.02;;;17.00;24.20;;;;;;5015180;28;20026;-61
2022/03/13 10:14:10;;;;;;;7.95;6.45;;;17.10;25.90;;;;;;5015940;28;20037;-60
2022/03/13 10:16:38;;;;;;;8.13;5.85;;;17.10;23.70;;;;;;5015971;28;20048;-60
2022/03/13 10:19:18;;;;;;;9.05;6.22;;;17.20;24.00;;;;;;5015864;28;20476;-60
2022/03/13 10:22:24;;;;;;;13.18;9.15;;;17.50;25.80;;;;;;5015829;28;20101;-60
2022/03/13 10:24:50;;;;;;;16.95;11.80;;;17.30;24.00;;;;;;5013675;28;20033;-60
2022/03/13 10:27:17;;;;;;;17.17;11.80;;;16.90;24.80;;;;;;5015166;28;20424;-60
2022/03/13 10:29:47;;;;;;;16.77;11.35;;;16.60;24.80;;;;;;5015720;28;20034;-61
2022/03/13 10:32:14;;;;;;;12.43;9.45;;;16.20;24.90;;;;;;5015577;28;20492;-60
2022/03/13 10:34:40;;;;;;;19.10;12.95;;;16.70;27.00;;;;;;5015559;28;20026;-60
2022/03/13 10:37:06;;;;;;;14.20;10.70;;;17.30;24.70;;;;;;5015556;28;20072;-60
2022/03/13 10:39:34;;;;;;;14.00;10.45;;;17.60;24.50;;;;;;5015444;28;20468;-60
2022/03/13 10:42:03;;;;;;;11.35;8.85;;;17.50;24.70;;;;;;5015554;28;20030;-60
2022/03/13 10:44:52;;;;;;;9.02;7.75;;;17.50;24.40;;;;;;5015495;28;20069;-60
2022/03/13 10:47:25;;;;;;;11.60;8.45;;;17.90;24.70;;;;;;5015485;28;20021;-61
2022/03/13 10:49:53;;;;;;;13.07;9.00;;;18.20;24.20;;;;;;5015370;28;20030;-61
2022/03/13 10:52:31;;;;;;;13.90;9.38;;;18.60;23.60;;;;;;5015530;28;20120;-60
2022/03/13 10:55:21;;;;;;;11.95;8.82;;;18.40;23.20;;;;;;5014968;28;20109;-60
2022/03/13 10:58:00;;;;;;;14.35;10.00;;;18.30;24.30;;;;;;5015438;28;20034;-61
2022/03/13 11:00:27;;;;;;;14.40;10.70;;;18.50;25.20;;;;;;5015061;28;20022;-61
2022/03/13 11:02:55;;;;;;;13.00;9.50;;;18.40;24.40;;;;;;5015455;28;20029;-61
2022/03/13 11:05:21;;;;;;;11.75;9.23;;;18.20;24.10;;;;;;5014961;28;20088;-61
2022/03/13 11:07:46;;;;;;;11.23;9.15;;;18.20;23.90;;;;;;5014917;28;20037;-61
2022/03/13 11:10:12;;;;;;;11.75;9.77;;;18.50;23.50;;;;;;5014844;28;20026;-62
2022/03/13 11:12:39;;;;;;;11.43;8.95;;;18.90;23.30;;;;;;5014725;28;20435;-61
2022/03/13 11:15:08;;;;;;;13.98;10.10;;;19.40;23.50;;;;;;5014803;28;20033;-61
2022/03/13 11:17:35;;;;;;;21.20;15.48;;;19.60;22.80;;;;;;5014807;28;20464;-62
2022/03/13 11:20:03;;;;;;;16.92;12.52;;;19.30;22.90;;;;;;5015027;28;20052;-61
2022/03/13 11:22:30;;;;;;;14.02;10.18;;;18.70;24.10;;;;;;5014281;28;20030;-61
2022/03/13 11:25:07;;;;;;;12.55;10.38;;;18.20;23.10;;;;;;5014649;28;20022;-62
2022/03/13 11:27:38;;;;;;;15.80;11.10;;;18.20;22.10;;;;;;5014728;28;20046;-61
2022/03/13 11:30:06;;;;;;;14.93;10.73;;;18.70;22.60;;;;;;5014443;28;20026;-62
2022/03/13 11:32:46;;;;;;;12.30;7.93;;;19.20;22.00;;;;;;5014754;28;20030;-61
2022/03/13 11:35:18;;;;;;;20.73;13.38;;;19.60;21.20;;;;;;5014423;28;20050;-61
2022/03/13 11:37:53;;;;;;;12.73;8.25;;;19.30;21.70;;;;;;5014762;28;20415;-61
2022/03/13 11:40:30;;;;;;;12.02;8.25;;;19.20;22.00;;;;;;5014456;28;20022;-61
2022/03/13 11:43:05;;;;;;;14.82;10.75;;;18.80;21.80;;;;;;5014370;28;20349;-60
2022/03/13 11:45:35;;;;;;;58.90;37.65;;;18.60;21.60;;;;;;5014325;28;20026;-61
2022/03/13 11:48:19;;;;;;;22.38;12.60;;;18.60;21.30;;;;;;5014202;28;20025;-61
2022/03/13 11:50:49;;;;;;;16.83;11.73;;;17.40;22.30;;;;;;5014299;28;20018;-61
2022/03/13 11:53:19;;;;;;;30.52;21.35;;;17.00;22.60;;;;;;5013819;28;20418;-60
2022/03/13 11:55:57;;;;;;;28.05;18.52;;;17.10;22.50;;;;;;5014186;28;20030;-60
2022/03/13 11:58:41;;;;;;;25.58;17.25;;;17.40;22.00;;;;;;5013995;28;20102;-60
2022/03/13 12:01:15;;;;;;;23.98;16.73;;;18.00;21.30;;;;;;5013985;28;20025;-61
2022/03/13 12:04:00;;;;;;;15.55;10.68;;;18.40;23.60;;;;;;5014146;28;20040;-61
2022/03/13 12:06:39;;;;;;;13.05;9.25;;;19.00;22.70;;;;;;5013793;28;20053;-61
2022/03/13 12:09:13;;;;;;;11.35;8.90;;;19.30;22.50;;;;;;5013694;28;20029;-61
2022/03/13 12:11:52;;;;;;;26.48;18.52;;;19.30;22.30;;;;;;5013859;28;20456;-61
2022/03/13 12:14:20;;;;;;;13.20;9.88;;;19.30;21.70;;;;;;5013947;28;20484;-61
2022/03/13 12:16:55;;;;;;;10.35;8.18;;;19.20;21.00;;;;;;5013840;28;20018;-61
2022/03/13 12:19:21;;;;;;;20.48;12.80;;;18.90;21.50;;;;;;5013717;28;20025;-61
2022/03/13 12:21:47;;;;;;;18.52;12.20;;;19.10;21.30;;;;;;5013918;28;20052;-61
2022/03/13 12:24:20;;;;;;;17.92;12.45;;;19.60;21.30;;;;;;5013556;28;20026;-61
2022/03/13 12:26:49;;;;;;;28.55;16.98;;;20.10;21.00;;;;;;5013876;28;20057;-60
2022/03/13 12:29:17;;;;;;;14.95;9.25;;;20.30;21.10;;;;;;5013976;28;20030;-61